Mark Center, Ohio
Current Conditions -  °F | °C
As of 5:53 PM on Friday 19 Dec 2014 (Local Time) from KDFI Reporting Station
Overcast Overcast  
Wind Chill: 31°   Ceiling: 2300
Heat Index: 31°   Visibility: 10mi
Dew Point: 22°   Wind: 0mph
Humidity: 69%   Direction: NA
Pressure: 30.31"   Gusts: NA
Location:  41.29°N, 84.63°W
Report Text: KDFI 192253Z AUTO 00000KT 10SM OVC023 M01/M06 A3031 RMK AO2 SLP273 T10061056 TSNO
Loading
Personal Weather Stations






























Interactive Weather Map New forecast layout! Learn more

10-Day Weather Forecast

Advertisements
Track Severe Weather on mobile